FIN814 LGAV-EFHK
Flight info
| Callsign | FIN814 |
|---|---|
| Flight time | N/A |
| Altitude | 31000 |
| Route | KRO UT162 KOROS/N0467F400 DCT ATFIR DCT RESLA DCT EKNAB DCT OLMIP DCT BAVMA DCT ADUKU DCT ORA DCT NARKA DCT KSC DCT LOGDA/N0462F390 M866 GERVI M857 SUWGI DCT BOKSU DCT ROLAV DCT DOLAT/N0471F400 DCT ARSAM DCT INTOR |
| Aircraft | A333/H-SDE3GHIJ2J3J5M1RVWXY/LB2D1 |
Departure
| Time | 2026-05-07 12:51 |
|---|---|
| Airport | Athens Eleftherios Venizelos International Airport (LGAV) |
Arrival
| Time | N/A |
|---|---|
| Airport | Helsinki Vantaa Airport (EFHK) |
| Time | Latitude | Longitude | Altitude | Speed | Heading |
|---|---|---|---|---|---|
| 2026-05-07 12:25 | 37.93508 | 23.94757 | 302 ft | 0 kts | 307° |
| 2026-05-07 12:40 | 37.93500 | 23.94769 | 302 ft | 2 kts | 309° |
| 2026-05-07 12:40 | 37.93490 | 23.94783 | 302 ft | 2 kts | 324° |
| 2026-05-07 12:40 | 37.93478 | 23.94793 | 302 ft | 2 kts | 335° |
| 2026-05-07 12:40 | 37.93464 | 23.94799 | 301 ft | 2 kts | 347° |
| 2026-05-07 12:41 | 37.93449 | 23.94802 | 301 ft | 2 kts | 360° |
| 2026-05-07 12:41 | 37.93434 | 23.94801 | 301 ft | 2 kts | 12° |
| 2026-05-07 12:41 | 37.93420 | 23.94796 | 301 ft | 2 kts | 24° |
| 2026-05-07 12:41 | 37.93407 | 23.94787 | 300 ft | 1 kts | 35° |
| 2026-05-07 12:42 | 37.93403 | 23.94784 | 300 ft | 0 kts | 38° |
| 2026-05-07 12:45 | 37.93404 | 23.94785 | 300 ft | 1 kts | 38° |
| 2026-05-07 12:45 | 37.93437 | 23.94831 | 301 ft | 10 kts | 66° |
| 2026-05-07 12:45 | 37.93407 | 23.94939 | 294 ft | 16 kts | 125° |
| 2026-05-07 12:45 | 37.93425 | 23.95067 | 290 ft | 17 kts | 38° |
| 2026-05-07 12:46 | 37.93531 | 23.95166 | 287 ft | 20 kts | 37° |
| 2026-05-07 12:46 | 37.93647 | 23.95277 | 285 ft | 21 kts | 37° |
| 2026-05-07 12:46 | 37.93769 | 23.95394 | 282 ft | 22 kts | 37° |
| 2026-05-07 12:46 | 37.93894 | 23.95513 | 282 ft | 22 kts | 37° |
| 2026-05-07 12:47 | 37.94017 | 23.95630 | 284 ft | 22 kts | 37° |
| 2026-05-07 12:47 | 37.94149 | 23.95755 | 285 ft | 23 kts | 37° |
| 2026-05-07 12:47 | 37.94273 | 23.95874 | 287 ft | 22 kts | 37° |
| 2026-05-07 12:47 | 37.94419 | 23.96012 | 292 ft | 30 kts | 37° |
| 2026-05-07 12:48 | 37.94588 | 23.96174 | 297 ft | 30 kts | 37° |
| 2026-05-07 12:48 | 37.94750 | 23.96327 | 303 ft | 27 kts | 37° |
| 2026-05-07 12:48 | 37.94911 | 23.96481 | 307 ft | 32 kts | 37° |
| 2026-05-07 12:48 | 37.95095 | 23.96657 | 314 ft | 32 kts | 37° |
| 2026-05-07 12:49 | 37.95245 | 23.96800 | 315 ft | 21 kts | 39° |
| 2026-05-07 12:49 | 37.95356 | 23.96908 | 317 ft | 20 kts | 44° |
| 2026-05-07 12:49 | 37.95374 | 23.96946 | 317 ft | 0 kts | 75° |
| 2026-05-07 12:49 | 37.95375 | 23.96956 | 317 ft | 5 kts | 84° |
| 2026-05-07 12:50 | 37.95305 | 23.97023 | 317 ft | 20 kts | 169° |
| 2026-05-07 12:50 | 37.95153 | 23.96988 | 316 ft | 22 kts | 225° |
| 2026-05-07 12:50 | 37.95008 | 23.96849 | 314 ft | 42 kts | 217° |
| 2026-05-07 12:50 | 37.94576 | 23.96439 | 296 ft | 110 kts | 217° |
| 2026-05-07 12:51 | 37.93808 | 23.95714 | 291 ft | 161 kts | 216° |
| 2026-05-07 12:51 | 37.92900 | 23.94875 | 863 ft | 161 kts | 216° |
| 2026-05-07 12:51 | 37.91993 | 23.94110 | 1549 ft | 160 kts | 205° |
| 2026-05-07 12:51 | 37.91020 | 23.93504 | 2184 ft | 153 kts | 208° |
| 2026-05-07 12:52 | 37.90047 | 23.92851 | 2490 ft | 162 kts | 208° |
| 2026-05-07 12:52 | 37.89054 | 23.92182 | 2924 ft | 161 kts | 207° |
| 2026-05-07 12:52 | 37.88059 | 23.91512 | 3300 ft | 165 kts | 207° |
| 2026-05-07 12:52 | 37.87043 | 23.90828 | 3684 ft | 167 kts | 207° |
| 2026-05-07 12:53 | 37.86015 | 23.90135 | 4078 ft | 168 kts | 207° |
| 2026-05-07 12:53 | 37.84999 | 23.89450 | 4485 ft | 168 kts | 207° |
| 2026-05-07 12:53 | 37.83948 | 23.88741 | 4859 ft | 171 kts | 208° |
| 2026-05-07 12:53 | 37.82917 | 23.88046 | 5261 ft | 171 kts | 208° |
| 2026-05-07 12:54 | 37.81855 | 23.87331 | 5603 ft | 174 kts | 208° |
| 2026-05-07 12:54 | 37.80788 | 23.86613 | 5998 ft | 175 kts | 208° |
| 2026-05-07 12:54 | 37.79712 | 23.85889 | 6390 ft | 175 kts | 209° |
| 2026-05-07 12:54 | 37.78621 | 23.85151 | 6737 ft | 179 kts | 210° |
| 2026-05-07 12:55 | 37.77794 | 23.84036 | 7049 ft | 179 kts | 250° |
| 2026-05-07 12:55 | 37.77742 | 23.82415 | 7170 ft | 196 kts | 289° |
| 2026-05-07 12:55 | 37.78567 | 23.81002 | 7249 ft | 215 kts | 323° |
| 2026-05-07 12:55 | 37.79969 | 23.80127 | 7326 ft | 237 kts | 336° |
| 2026-05-07 12:56 | 37.81542 | 23.79276 | 7533 ft | 259 kts | 336° |
| 2026-05-07 12:56 | 37.83290 | 23.78327 | 7756 ft | 281 kts | 336° |
| 2026-05-07 12:56 | 37.85077 | 23.77363 | 8545 ft | 280 kts | 336° |
| 2026-05-07 12:56 | 37.86872 | 23.76394 | 9316 ft | 281 kts | 336° |
| 2026-05-07 12:57 | 37.88669 | 23.75419 | 9950 ft | 285 kts | 336° |
| 2026-05-07 12:57 | 37.90482 | 23.74450 | 10663 ft | 287 kts | 335° |
| 2026-05-07 12:57 | 37.92339 | 23.73486 | 11381 ft | 289 kts | 336° |
| 2026-05-07 12:57 | 37.94204 | 23.72536 | 12055 ft | 291 kts | 336° |
| 2026-05-07 12:58 | 37.96093 | 23.71585 | 12662 ft | 296 kts | 335° |
| 2026-05-07 12:58 | 37.98000 | 23.70646 | 13361 ft | 296 kts | 336° |
| 2026-05-07 12:58 | 37.99932 | 23.69717 | 13991 ft | 299 kts | 336° |
| 2026-05-07 12:58 | 38.01890 | 23.68782 | 14623 ft | 302 kts | 336° |
| 2026-05-07 12:59 | 38.03875 | 23.67839 | 15197 ft | 306 kts | 335° |
| 2026-05-07 12:59 | 38.05865 | 23.66911 | 15782 ft | 309 kts | 336° |
| 2026-05-07 12:59 | 38.07888 | 23.65967 | 16373 ft | 312 kts | 336° |
| 2026-05-07 12:59 | 38.09936 | 23.65022 | 16953 ft | 314 kts | 335° |
| 2026-05-07 13:00 | 38.11983 | 23.64094 | 17543 ft | 316 kts | 336° |
| 2026-05-07 13:00 | 38.14062 | 23.63150 | 18055 ft | 320 kts | 336° |
| 2026-05-07 13:00 | 38.16168 | 23.62197 | 18618 ft | 323 kts | 336° |
| 2026-05-07 13:00 | 38.18276 | 23.61230 | 19221 ft | 324 kts | 336° |
| 2026-05-07 13:01 | 38.20392 | 23.60269 | 19747 ft | 327 kts | 336° |
| 2026-05-07 13:01 | 38.22548 | 23.59286 | 20289 ft | 329 kts | 335° |
| 2026-05-07 13:01 | 38.24700 | 23.58318 | 20837 ft | 330 kts | 336° |
| 2026-05-07 13:01 | 38.26873 | 23.57326 | 21290 ft | 334 kts | 336° |
| 2026-05-07 13:02 | 38.29046 | 23.56320 | 21798 ft | 336 kts | 336° |
| 2026-05-07 13:02 | 38.31244 | 23.55307 | 22306 ft | 337 kts | 336° |
| 2026-05-07 13:02 | 38.33457 | 23.54297 | 22800 ft | 339 kts | 336° |
| 2026-05-07 13:02 | 38.35697 | 23.53265 | 23246 ft | 341 kts | 336° |
| 2026-05-07 13:03 | 38.37936 | 23.52243 | 23711 ft | 343 kts | 336° |
| 2026-05-07 13:03 | 38.40178 | 23.51215 | 24179 ft | 345 kts | 336° |
| 2026-05-07 13:03 | 38.42416 | 23.50188 | 24667 ft | 345 kts | 336° |
| 2026-05-07 13:03 | 38.44680 | 23.49139 | 25109 ft | 347 kts | 335° |
| 2026-05-07 13:04 | 38.46951 | 23.48094 | 25537 ft | 349 kts | 336° |
| 2026-05-07 13:04 | 38.49258 | 23.47039 | 25975 ft | 351 kts | 336° |
| 2026-05-07 13:04 | 38.51536 | 23.45998 | 26462 ft | 351 kts | 336° |
| 2026-05-07 13:04 | 38.53828 | 23.44950 | 26903 ft | 352 kts | 336° |
| 2026-05-07 13:05 | 38.56182 | 23.43875 | 27215 ft | 357 kts | 336° |
| 2026-05-07 13:05 | 38.58506 | 23.42823 | 27710 ft | 357 kts | 336° |
| 2026-05-07 13:05 | 38.60849 | 23.41764 | 28129 ft | 358 kts | 336° |
| 2026-05-07 13:05 | 38.63212 | 23.40685 | 28454 ft | 362 kts | 335° |
| 2026-05-07 13:06 | 38.65545 | 23.39622 | 28937 ft | 361 kts | 336° |
| 2026-05-07 13:06 | 38.67913 | 23.38539 | 29302 ft | 364 kts | 336° |
| 2026-05-07 13:06 | 38.70309 | 23.37445 | 29669 ft | 366 kts | 336° |
| 2026-05-07 13:06 | 38.72712 | 23.36359 | 30085 ft | 367 kts | 336° |
| 2026-05-07 13:07 | 38.75108 | 23.35260 | 30504 ft | 367 kts | 336° |
| 2026-05-07 13:07 | 38.77530 | 23.34158 | 30860 ft | 370 kts | 335° |
| 2026-05-07 13:07 | 38.79966 | 23.33040 | 31160 ft | 374 kts | 336° |
| 2026-05-07 13:07 | 38.82440 | 23.31891 | 31076 ft | 380 kts | 335° |
| 2026-05-07 13:08 | 38.87407 | 23.29569 | 31133 ft | 390 kts | 335° |
| 2026-05-07 13:08 | 38.90015 | 23.28355 | 31125 ft | 401 kts | 336° |
| 2026-05-07 13:08 | 38.92656 | 23.27092 | 31126 ft | 412 kts | 335° |
| 2026-05-07 13:09 | 38.95368 | 23.25799 | 31115 ft | 423 kts | 335° |
| 2026-05-07 13:09 | 38.98154 | 23.24465 | 31129 ft | 433 kts | 336° |
| 2026-05-07 13:09 | 39.03915 | 23.21648 | 31122 ft | 450 kts | 335° |
| 2026-05-07 13:10 | 39.09842 | 23.18712 | 31119 ft | 464 kts | 336° |
| 2026-05-07 13:10 | 39.15929 | 23.15693 | 31117 ft | 473 kts | 335° |
| 2026-05-07 13:11 | 39.22034 | 23.12661 | 31110 ft | 471 kts | 336° |
| 2026-05-07 13:11 | 39.28143 | 23.09626 | 31113 ft | 467 kts | 335° |
| 2026-05-07 13:12 | 39.34210 | 23.06647 | 31116 ft | 469 kts | 336° |
| 2026-05-07 13:12 | 39.40312 | 23.03621 | 31124 ft | 470 kts | 336° |
| 2026-05-07 13:13 | 39.46382 | 23.00626 | 31139 ft | 470 kts | 336° |
| 2026-05-07 13:13 | 39.52497 | 22.97584 | 31146 ft | 471 kts | 336° |
| 2026-05-07 13:14 | 39.58601 | 22.94551 | 31134 ft | 473 kts | 336° |
| 2026-05-07 13:14 | 39.64746 | 22.91490 | 31119 ft | 472 kts | 336° |
| 2026-05-07 13:15 | 39.70869 | 22.88434 | 31119 ft | 471 kts | 336° |
| 2026-05-07 13:15 | 39.76997 | 22.85376 | 31122 ft | 475 kts | 336° |
| 2026-05-07 13:16 | 39.83166 | 22.82278 | 31119 ft | 475 kts | 336° |
| 2026-05-07 13:16 | 39.89283 | 22.79197 | 31122 ft | 475 kts | 336° |
| 2026-05-07 13:17 | 39.95473 | 22.76046 | 31101 ft | 477 kts | 336° |
| 2026-05-07 13:17 | 40.01611 | 22.72882 | 31103 ft | 479 kts | 336° |
| 2026-05-07 13:18 | 40.07799 | 22.69686 | 31106 ft | 478 kts | 336° |
| 2026-05-07 13:18 | 40.13983 | 22.66512 | 31108 ft | 478 kts | 336° |
| 2026-05-07 13:19 | 40.20161 | 22.63356 | 31107 ft | 478 kts | 336° |
| 2026-05-07 13:19 | 40.26388 | 22.60179 | 31099 ft | 478 kts | 336° |
| 2026-05-07 13:20 | 40.32542 | 22.57050 | 31101 ft | 479 kts | 336° |
| 2026-05-07 13:20 | 40.38788 | 22.53876 | 31103 ft | 480 kts | 336° |
| 2026-05-07 13:21 | 40.45006 | 22.50723 | 31105 ft | 480 kts | 336° |
| 2026-05-07 13:21 | 40.51207 | 22.47584 | 31106 ft | 480 kts | 336° |
| 2026-05-07 13:22 | 40.57442 | 22.44446 | 31121 ft | 480 kts | 336° |
| 2026-05-07 13:22 | 40.63977 | 22.42670 | 31104 ft | 491 kts | 0° |
| 2026-05-07 13:23 | 40.67379 | 22.43506 | 31117 ft | 499 kts | 16° |
| 2026-05-07 13:23 | 40.70556 | 22.45330 | 31117 ft | 503 kts | 25° |
| 2026-05-07 13:23 | 40.73464 | 22.47920 | 31096 ft | 508 kts | 40° |
| 2026-05-07 13:23 | 40.75769 | 22.51417 | 31109 ft | 510 kts | 56° |
| 2026-05-07 13:24 | 40.79667 | 22.59210 | 31103 ft | 511 kts | 55° |
| 2026-05-07 13:24 | 40.83653 | 22.66891 | 31116 ft | 510 kts | 55° |
| 2026-05-07 13:25 | 40.87673 | 22.74632 | 31116 ft | 509 kts | 55° |
| 2026-05-07 13:25 | 40.91677 | 22.82355 | 31116 ft | 509 kts | 55° |
| 2026-05-07 13:26 | 40.95677 | 22.90089 | 31117 ft | 510 kts | 55° |
| 2026-05-07 13:26 | 40.99660 | 22.97809 | 31123 ft | 509 kts | 55° |
| 2026-05-07 13:27 | 41.03630 | 23.05527 | 31124 ft | 509 kts | 55° |
| 2026-05-07 13:27 | 41.07605 | 23.13270 | 31121 ft | 510 kts | 55° |
| 2026-05-07 13:28 | 41.11590 | 23.21055 | 31115 ft | 511 kts | 55° |
| 2026-05-07 13:28 | 41.15547 | 23.28804 | 31105 ft | 511 kts | 55° |
| 2026-05-07 13:29 | 41.19558 | 23.36680 | 31106 ft | 518 kts | 55° |
| 2026-05-07 13:29 | 41.23628 | 23.44547 | 31102 ft | 518 kts | 50° |
| 2026-05-07 13:30 | 41.26224 | 23.47842 | 31110 ft | 516 kts | 34° |
| 2026-05-07 13:30 | 41.29298 | 23.50172 | 31148 ft | 513 kts | 23° |
| 2026-05-07 13:30 | 41.35989 | 23.53145 | 31104 ft | 505 kts | 2° |
| 2026-05-07 13:31 | 41.39463 | 23.52978 | 31140 ft | 499 kts | 349° |
| 2026-05-07 13:31 | 41.42928 | 23.52455 | 31129 ft | 502 kts | 351° |
| 2026-05-07 13:31 | 41.49877 | 23.51649 | 31115 ft | 503 kts | 352° |
| 2026-05-07 13:32 | 41.56859 | 23.50888 | 31128 ft | 502 kts | 352° |
| 2026-05-07 13:32 | 41.63794 | 23.50135 | 31145 ft | 502 kts | 352° |
| 2026-05-07 13:33 | 41.70767 | 23.49377 | 31158 ft | 504 kts | 352° |
| 2026-05-07 13:33 | 41.77724 | 23.48619 | 31174 ft | 503 kts | 352° |
| 2026-05-07 13:34 | 41.88186 | 23.47478 | 31158 ft | 503 kts | 352° |
| 2026-05-07 13:35 | 41.95143 | 23.46714 | 31155 ft | 504 kts | 352° |
| 2026-05-07 13:35 | 42.02120 | 23.45949 | 31147 ft | 504 kts | 352° |
| 2026-05-07 13:36 | 42.09112 | 23.45179 | 31150 ft | 504 kts | 352° |
| 2026-05-07 13:36 | 42.16064 | 23.44414 | 31132 ft | 504 kts | 352° |
| 2026-05-07 13:37 | 42.23055 | 23.43641 | 31136 ft | 504 kts | 352° |
| 2026-05-07 13:37 | 42.30015 | 23.42870 | 31133 ft | 504 kts | 352° |
| 2026-05-07 13:38 | 42.36993 | 23.42094 | 31125 ft | 503 kts | 352° |
| 2026-05-07 13:38 | 42.43964 | 23.41321 | 31126 ft | 503 kts | 352° |
| 2026-05-07 13:39 | 42.50900 | 23.40546 | 31118 ft | 503 kts | 352° |
| 2026-05-07 13:39 | 42.57864 | 23.39769 | 31115 ft | 502 kts | 352° |
| 2026-05-07 13:40 | 42.64813 | 23.38990 | 31111 ft | 502 kts | 352° |
| 2026-05-07 13:40 | 42.71767 | 23.38210 | 31110 ft | 503 kts | 352° |
| 2026-05-07 13:41 | 42.78728 | 23.37427 | 31098 ft | 502 kts | 352° |
| 2026-05-07 13:41 | 42.85703 | 23.36640 | 31100 ft | 502 kts | 352° |
| 2026-05-07 13:42 | 42.92659 | 23.35855 | 31108 ft | 502 kts | 352° |
| 2026-05-07 13:42 | 42.99563 | 23.35073 | 31101 ft | 501 kts | 352° |
| 2026-05-07 13:43 | 43.06537 | 23.34280 | 31094 ft | 501 kts | 351° |
| 2026-05-07 13:43 | 43.13431 | 23.33497 | 31082 ft | 501 kts | 352° |
| 2026-05-07 13:44 | 43.20394 | 23.32701 | 31072 ft | 500 kts | 352° |
| 2026-05-07 13:44 | 43.27304 | 23.31913 | 31061 ft | 502 kts | 352° |
| 2026-05-07 13:45 | 43.34206 | 23.30848 | 31045 ft | 497 kts | 343° |
| 2026-05-07 13:45 | 43.40930 | 23.28651 | 31052 ft | 497 kts | 343° |
| 2026-05-07 13:46 | 43.47642 | 23.26465 | 31056 ft | 497 kts | 343° |
| 2026-05-07 13:46 | 43.54368 | 23.24270 | 31050 ft | 498 kts | 343° |
| 2026-05-07 13:47 | 43.61121 | 23.22060 | 31046 ft | 499 kts | 343° |
| 2026-05-07 13:47 | 43.67821 | 23.19862 | 31050 ft | 498 kts | 343° |
| 2026-05-07 13:48 | 43.74585 | 23.17639 | 31236 ft | 496 kts | 343° |
| 2026-05-07 13:48 | 43.77904 | 23.16547 | 31657 ft | 491 kts | 343° |
| 2026-05-07 13:48 | 43.81221 | 23.15452 | 31816 ft | 493 kts | 343° |
| 2026-05-07 13:48 | 43.84523 | 23.14362 | 31924 ft | 495 kts | 343° |
| 2026-05-07 13:49 | 43.87895 | 23.13249 | 32060 ft | 494 kts | 343° |
| 2026-05-07 13:49 | 43.94553 | 23.11046 | 32029 ft | 495 kts | 343° |
| 2026-05-07 13:50 | 44.01234 | 23.08828 | 32030 ft | 495 kts | 343° |
| 2026-05-07 13:50 | 44.07967 | 23.06590 | 32031 ft | 495 kts | 343° |
| 2026-05-07 13:51 | 44.14715 | 23.04341 | 32029 ft | 496 kts | 343° |
| 2026-05-07 13:51 | 44.21416 | 23.02103 | 32029 ft | 496 kts | 343° |
| 2026-05-07 13:52 | 44.28120 | 22.99857 | 32028 ft | 497 kts | 343° |
| 2026-05-07 13:52 | 44.34817 | 22.97610 | 32023 ft | 497 kts | 343° |
| 2026-05-07 13:53 | 44.41537 | 22.95349 | 32018 ft | 497 kts | 343° |
| 2026-05-07 13:53 | 44.48217 | 22.93097 | 32019 ft | 497 kts | 343° |
| 2026-05-07 13:54 | 44.54956 | 22.90817 | 32020 ft | 499 kts | 343° |
| 2026-05-07 13:54 | 44.61713 | 22.88528 | 32017 ft | 499 kts | 343° |
| 2026-05-07 13:55 | 44.68440 | 22.86244 | 32022 ft | 498 kts | 342° |
| 2026-05-07 13:55 | 44.75163 | 22.83954 | 32021 ft | 499 kts | 342° |
| 2026-05-07 13:56 | 44.81908 | 22.81652 | 32024 ft | 499 kts | 342° |
| 2026-05-07 13:56 | 44.88654 | 22.79345 | 32033 ft | 500 kts | 342° |
| 2026-05-07 13:57 | 44.95362 | 22.77044 | 32032 ft | 498 kts | 342° |
| 2026-05-07 13:57 | 45.02135 | 22.74715 | 32026 ft | 500 kts | 342° |
| 2026-05-07 13:58 | 45.08835 | 22.72407 | 32045 ft | 500 kts | 342° |
| 2026-05-07 13:58 | 45.15617 | 22.70063 | 32045 ft | 500 kts | 342° |
| 2026-05-07 13:59 | 45.22353 | 22.67730 | 32052 ft | 501 kts | 342° |
| 2026-05-07 13:59 | 45.29104 | 22.65387 | 32054 ft | 500 kts | 342° |
| 2026-05-07 14:00 | 45.35851 | 22.63039 | 32044 ft | 500 kts | 342° |
| 2026-05-07 14:00 | 45.42594 | 22.60687 | 32035 ft | 501 kts | 342° |
| 2026-05-07 14:01 | 45.49333 | 22.58331 | 32032 ft | 499 kts | 342° |
| 2026-05-07 14:01 | 45.56059 | 22.55973 | 32026 ft | 500 kts | 342° |
| 2026-05-07 14:02 | 45.62808 | 22.53600 | 32033 ft | 501 kts | 342° |
| 2026-05-07 14:02 | 45.69583 | 22.51216 | 32031 ft | 500 kts | 342° |
| 2026-05-07 14:03 | 45.76286 | 22.48655 | 32047 ft | 500 kts | 340° |
| 2026-05-07 14:03 | 45.82985 | 22.45899 | 32030 ft | 501 kts | 340° |
| 2026-05-07 14:04 | 45.89643 | 22.43157 | 32027 ft | 499 kts | 340° |